Time;durP1;ratioP1;P1;durP2;ratioP2;P2;SDS_P1;SDS_P2;PMS_P1;PMS_P2;Temp;Humidity;BMP_temperature;BMP_pressure;BME280_temperature;BME280_humidity;BME280_pressure;Samples;Min_cycle;Max_cycle;Signal;HPM_P1;HPM_P2
2022/08/28 00:01:32;;;;;;;1.90;1.30;;;19.70;99.90;;;;;;5035325;28;20167;-71
2022/08/28 00:03:59;;;;;;;2.80;1.80;;;19.70;99.90;;;;;;5033617;28;20188;-71
2022/08/28 00:06:25;;;;;;;1.67;1.40;;;19.70;99.90;;;;;;5034623;28;20164;-71
2022/08/28 00:08:50;;;;;;;3.20;1.67;;;19.70;99.90;;;;;;5035042;28;20750;-71
2022/08/28 00:11:16;;;;;;;5.20;1.10;;;19.70;99.90;;;;;;5035004;28;20403;-71
2022/08/28 00:13:42;;;;;;;1.90;1.30;;;19.70;99.90;;;;;;5034952;28;20199;-71
2022/08/28 00:16:08;;;;;;;2.33;1.00;;;19.70;99.90;;;;;;5034654;28;20175;-71
2022/08/28 00:18:33;;;;;;;4.47;1.33;;;19.70;99.90;;;;;;5034691;28;20418;-71
2022/08/28 00:20:59;;;;;;;1.53;1.07;;;19.70;99.90;;;;;;5034717;28;20254;-71
2022/08/28 00:23:25;;;;;;;4.13;1.20;;;19.70;99.90;;;;;;5034910;28;20180;-71
2022/08/28 00:25:51;;;;;;;2.97;1.40;;;19.70;99.90;;;;;;5034614;28;20433;-71
2022/08/28 00:28:17;;;;;;;4.70;1.60;;;19.70;99.90;;;;;;5034843;28;20196;-71
2022/08/28 00:30:47;;;;;;;2.33;1.20;;;19.70;99.90;;;;;;5034732;28;20403;-71
2022/08/28 00:33:28;;;;;;;4.13;1.20;;;19.70;99.90;;;;;;5034264;28;20199;-71
2022/08/28 00:35:56;;;;;;;1.73;1.13;;;19.70;99.90;;;;;;5034253;28;20402;-71
2022/08/28 00:38:22;;;;;;;2.93;1.10;;;19.70;99.90;;;;;;5034608;28;20409;-71
2022/08/28 00:40:52;;;;;;;3.27;2.40;;;19.60;99.90;;;;;;5034618;28;20395;-71
2022/08/28 00:43:33;;;;;;;2.57;1.50;;;19.60;99.90;;;;;;5034476;28;20418;-71
2022/08/28 00:46:01;;;;;;;2.83;2.13;;;19.60;99.90;;;;;;5033947;28;20424;-71
2022/08/28 00:48:26;;;;;;;4.50;1.30;;;19.60;99.90;;;;;;5034479;28;20407;-71
2022/08/28 00:53:36;;;;;;;4.10;0.97;;;19.60;99.90;;;;;;5034278;28;20210;-71
2022/08/28 00:56:06;;;;;;;1.57;1.00;;;19.60;99.90;;;;;;5034034;28;20402;-71
2022/08/28 00:58:32;;;;;;;1.70;1.13;;;19.60;99.90;;;;;;5034204;28;20159;-71
2022/08/28 01:00:59;;;;;;;3.20;1.20;;;19.60;99.90;;;;;;5033508;28;20420;-70
2022/08/28 01:03:25;;;;;;;1.83;1.13;;;19.50;99.90;;;;;;5033941;28;20431;-70
2022/08/28 01:05:50;;;;;;;2.23;1.13;;;19.60;99.90;;;;;;5033820;28;20402;-71
2022/08/28 01:08:16;;;;;;;3.60;1.40;;;19.50;99.90;;;;;;5033960;28;20258;-71
2022/08/28 01:10:46;;;;;;;2.17;1.00;;;19.50;99.90;;;;;;5033898;28;20183;-71
2022/08/28 01:13:13;;;;;;;3.47;1.20;;;19.50;99.90;;;;;;5033707;28;20226;-71
2022/08/28 01:15:40;;;;;;;2.00;1.20;;;19.50;99.90;;;;;;5033725;28;20442;-71
2022/08/28 01:18:09;;;;;;;5.33;1.00;;;19.50;99.90;;;;;;5033935;28;20883;-71
2022/08/28 01:20:44;;;;;;;3.77;1.40;;;19.50;99.90;;;;;;5033896;28;20772;-71
2022/08/28 01:23:24;;;;;;;1.20;1.07;;;19.50;99.90;;;;;;5033113;28;20464;-71
2022/08/28 01:25:51;;;;;;;5.00;1.03;;;19.40;99.90;;;;;;5033310;28;20424;-71
2022/08/28 01:28:17;;;;;;;2.90;1.00;;;19.40;99.90;;;;;;5033602;28;20489;-71
2022/08/28 01:30:46;;;;;;;1.93;1.00;;;19.40;99.90;;;;;;5033720;28;20406;-71
2022/08/28 01:33:13;;;;;;;2.17;1.20;;;19.40;99.90;;;;;;5033440;28;20461;-71
2022/08/28 01:35:43;;;;;;;1.43;1.07;;;19.40;99.90;;;;;;5033032;28;20822;-71
2022/08/28 01:38:09;;;;;;;2.83;1.90;;;19.30;99.90;;;;;;5033138;28;20414;-71
2022/08/28 01:40:41;;;;;;;1.50;1.40;;;19.30;99.90;;;;;;5033395;28;20456;-71
2022/08/28 01:43:12;;;;;;;2.47;1.13;;;19.30;99.90;;;;;;5033302;28;20426;-71
2022/08/28 01:45:41;;;;;;;3.27;1.60;;;19.30;99.90;;;;;;5031754;28;20414;-71
2022/08/28 01:48:07;;;;;;;2.37;1.20;;;19.20;99.90;;;;;;5033269;28;20473;-72
2022/08/28 01:50:34;;;;;;;4.70;1.03;;;19.20;99.90;;;;;;5032031;28;20437;-72
2022/08/28 01:53:01;;;;;;;1.37;1.17;;;19.20;99.90;;;;;;5033329;28;20469;-72
2022/08/28 01:55:27;;;;;;;3.40;1.27;;;19.20;99.90;;;;;;5032843;28;20410;-71
2022/08/28 01:57:54;;;;;;;2.43;1.60;;;19.20;99.90;;;;;;5033174;28;20485;-71
2022/08/28 02:00:25;;;;;;;1.30;1.10;;;19.20;99.90;;;;;;5033318;28;20907;-71
2022/08/28 02:02:51;;;;;;;2.50;1.13;;;19.20;99.90;;;;;;5032954;28;20458;-71
2022/08/28 02:05:18;;;;;;;2.57;1.30;;;19.10;99.90;;;;;;5029242;28;20958;-72
2022/08/28 02:07:43;;;;;;;2.13;1.20;;;19.10;99.90;;;;;;5013002;28;20199;-71
2022/08/28 02:10:10;;;;;;;2.17;1.13;;;19.00;99.90;;;;;;5012216;28;20419;-72
2022/08/28 02:12:36;;;;;;;5.10;2.00;;;19.00;99.90;;;;;;5012585;28;20211;-71
2022/08/28 02:15:04;;;;;;;2.20;1.30;;;19.00;99.90;;;;;;5012807;28;20396;-71
2022/08/28 02:17:30;;;;;;;3.90;1.67;;;19.00;99.90;;;;;;5032736;28;20410;-72
2022/08/28 02:19:55;;;;;;;3.83;1.50;;;19.00;99.90;;;;;;5032689;28;20929;-72
2022/08/28 02:22:21;;;;;;;2.07;1.23;;;19.00;99.90;;;;;;5032492;28;20258;-74
2022/08/28 02:24:46;;;;;;;1.60;1.37;;;18.90;99.90;;;;;;5032473;28;20530;-72
2022/08/28 02:27:12;;;;;;;2.27;1.23;;;18.90;99.90;;;;;;5032504;28;20199;-72
2022/08/28 02:29:38;;;;;;;2.50;1.40;;;18.90;99.90;;;;;;5032541;28;20172;-72
2022/08/28 02:32:04;;;;;;;3.00;1.50;;;18.90;99.90;;;;;;5032513;28;20199;-72
2022/08/28 02:34:32;;;;;;;3.70;1.63;;;18.90;99.90;;;;;;5032324;28;20652;-72
2022/08/28 02:36:57;;;;;;;2.60;1.40;;;18.80;99.90;;;;;;5032348;28;20414;-71
2022/08/28 02:39:23;;;;;;;2.50;1.07;;;18.80;99.90;;;;;;5032100;28;20421;-71
2022/08/28 02:41:49;;;;;;;2.23;1.30;;;18.80;99.90;;;;;;5032344;28;20528;-71
2022/08/28 02:44:16;;;;;;;2.07;1.30;;;18.80;99.90;;;;;;5032132;28;20183;-72
2022/08/28 02:46:41;;;;;;;3.77;1.40;;;18.80;99.90;;;;;;5032232;28;20250;-71
2022/08/28 02:49:07;;;;;;;7.57;1.90;;;18.80;99.90;;;;;;5032340;28;20457;-71
2022/08/28 02:51:33;;;;;;;1.30;1.10;;;18.80;99.90;;;;;;5031800;28;20537;-71
2022/08/28 02:53:59;;;;;;;3.27;1.40;;;18.70;99.90;;;;;;5031897;28;20616;-72
2022/08/28 02:56:24;;;;;;;1.50;1.20;;;18.70;99.90;;;;;;5031889;28;20164;-71
2022/08/28 02:58:50;;;;;;;1.53;1.10;;;18.70;99.90;;;;;;5032257;28;20414;-71
2022/08/28 03:01:16;;;;;;;5.00;1.80;;;18.70;99.90;;;;;;5032190;28;20176;-72
2022/08/28 03:03:41;;;;;;;2.47;1.30;;;18.70;99.90;;;;;;5031875;28;20203;-72
2022/08/28 03:06:10;;;;;;;2.60;1.60;;;18.70;99.90;;;;;;5031835;28;20171;-72
2022/08/28 03:08:37;;;;;;;1.40;1.30;;;18.60;99.90;;;;;;5032135;28;20410;-72
2022/08/28 03:11:02;;;;;;;3.83;2.37;;;18.60;99.90;;;;;;5032124;28;20436;-72
2022/08/28 03:13:29;;;;;;;4.43;1.97;;;18.50;99.90;;;;;;5031988;28;21151;-72
2022/08/28 03:15:55;;;;;;;8.70;2.30;;;18.40;99.90;;;;;;5031399;28;20243;-71
2022/08/28 03:18:21;;;;;;;4.20;1.90;;;18.40;99.90;;;;;;5031646;28;20505;-72
2022/08/28 03:20:46;;;;;;;2.20;1.80;;;18.30;99.90;;;;;;5031802;28;20579;-72
2022/08/28 03:23:27;;;;;;;3.63;1.63;;;18.30;99.90;;;;;;5031681;28;20458;-72
2022/08/28 03:26:01;;;;;;;2.23;2.00;;;18.10;99.90;;;;;;5034727;28;20221;-72
2022/08/28 03:28:29;;;;;;;2.43;1.90;;;18.00;99.90;;;;;;5035548;28;20430;-72
2022/08/28 03:30:56;;;;;;;3.07;1.60;;;18.00;99.90;;;;;;5035729;28;20496;-72
2022/08/28 03:33:22;;;;;;;2.63;1.80;;;17.90;99.90;;;;;;5035540;28;20461;-72
2022/08/28 03:35:49;;;;;;;3.47;1.83;;;17.80;99.90;;;;;;5035430;28;20406;-72
2022/08/28 03:38:15;;;;;;;5.40;1.90;;;17.70;99.90;;;;;;5035618;28;22264;-72
2022/08/28 03:40:44;;;;;;;11.13;2.00;;;17.60;99.90;;;;;;5034693;28;20934;-72
2022/08/28 03:43:16;;;;;;;3.00;2.07;;;17.60;99.90;;;;;;5035710;28;20791;-72
2022/08/28 03:46:01;;;;;;;2.73;1.93;;;17.50;99.90;;;;;;5035326;28;20429;-72
2022/08/28 03:48:30;;;;;;;3.00;1.73;;;17.40;99.90;;;;;;5035674;28;20775;-72
2022/08/28 03:50:56;;;;;;;2.50;2.03;;;17.30;99.90;;;;;;5035294;28;20533;-72
2022/08/28 03:53:24;;;;;;;4.60;2.10;;;17.20;99.90;;;;;;5035455;28;20469;-77
2022/08/28 03:55:50;;;;;;;6.63;2.03;;;17.20;99.90;;;;;;5034687;28;20924;-72
2022/08/28 03:58:16;;;;;;;6.50;2.50;;;17.10;99.90;;;;;;5035521;28;20402;-72
2022/08/28 04:00:43;;;;;;;3.70;1.70;;;17.10;99.90;;;;;;5035309;28;20172;-72
2022/08/28 04:03:11;;;;;;;7.30;2.63;;;17.00;99.90;;;;;;5035067;28;20445;-72
2022/08/28 04:05:38;;;;;;;5.83;2.10;;;17.00;99.90;;;;;;5035052;28;20433;-72
2022/08/28 04:08:04;;;;;;;3.87;2.13;;;17.00;99.90;;;;;;5033975;28;20421;-72
2022/08/28 04:10:31;;;;;;;2.37;2.00;;;16.90;99.90;;;;;;5033957;28;20422;-72
2022/08/28 04:12:59;;;;;;;3.73;2.37;;;16.90;99.90;;;;;;5034948;28;20469;-71
2022/08/28 04:15:25;;;;;;;2.93;2.33;;;16.90;99.90;;;;;;5034491;28;20425;-71
2022/08/28 04:17:50;;;;;;;4.73;1.80;;;16.90;99.90;;;;;;5033667;28;20915;-72
2022/08/28 04:20:16;;;;;;;3.73;1.73;;;16.90;99.90;;;;;;5034967;28;20456;-72
2022/08/28 04:22:42;;;;;;;3.70;1.63;;;16.90;99.90;;;;;;5034795;28;20191;-72
2022/08/28 04:25:08;;;;;;;2.40;1.97;;;16.80;99.90;;;;;;5034530;28;20927;-72
2022/08/28 04:27:34;;;;;;;3.73;2.10;;;16.90;99.90;;;;;;5034486;28;20176;-71
2022/08/28 04:29:59;;;;;;;3.80;2.00;;;16.90;99.90;;;;;;5034782;28;20399;-72
2022/08/28 04:32:25;;;;;;;5.03;2.30;;;16.90;99.90;;;;;;5034542;28;20264;-72
2022/08/28 04:34:51;;;;;;;6.03;2.87;;;16.80;99.90;;;;;;5034115;28;20498;-72
2022/08/28 04:37:17;;;;;;;6.13;2.33;;;16.80;99.90;;;;;;5033832;28;20258;-72
2022/08/28 04:39:43;;;;;;;4.77;2.77;;;16.80;99.90;;;;;;5033706;28;20647;-72
2022/08/28 04:42:09;;;;;;;2.50;1.77;;;16.80;99.90;;;;;;5034485;28;20493;-72
2022/08/28 04:44:34;;;;;;;2.93;1.97;;;16.80;99.90;;;;;;5034064;28;20202;-72
2022/08/28 04:47:00;;;;;;;2.20;1.80;;;16.80;99.90;;;;;;5034218;28;20664;-72
2022/08/28 04:49:26;;;;;;;11.50;2.33;;;16.90;99.90;;;;;;5034495;28;20211;-72
2022/08/28 04:51:52;;;;;;;8.53;2.43;;;16.90;99.90;;;;;;5032914;28;20655;-71
2022/08/28 04:54:18;;;;;;;2.77;2.53;;;16.90;99.90;;;;;;5032828;28;20810;-72
2022/08/28 04:56:45;;;;;;;3.70;2.30;;;16.90;99.90;;;;;;5034245;28;20414;-72
2022/08/28 04:59:11;;;;;;;2.73;1.70;;;16.90;99.90;;;;;;5034037;28;20421;-71
2022/08/28 05:01:36;;;;;;;4.80;1.97;;;16.90;99.90;;;;;;5034115;28;20432;-72
2022/08/28 05:04:02;;;;;;;3.50;1.93;;;16.90;99.90;;;;;;5033982;28;20465;-71
2022/08/28 05:06:29;;;;;;;3.53;1.90;;;16.90;99.90;;;;;;5033903;28;20544;-71
2022/08/28 05:08:56;;;;;;;4.30;2.47;;;16.90;99.90;;;;;;5034095;28;20414;-71
2022/08/28 05:11:24;;;;;;;2.83;2.07;;;16.90;99.90;;;;;;5032397;28;20437;-71
2022/08/28 05:13:51;;;;;;;4.97;2.10;;;16.90;99.90;;;;;;5033862;28;20480;-72
2022/08/28 05:16:18;;;;;;;5.27;2.30;;;16.90;99.90;;;;;;5033735;28;20469;-72
2022/08/28 05:18:44;;;;;;;2.93;2.30;;;16.90;99.90;;;;;;5034013;28;20403;-72
2022/08/28 05:21:21;;;;;;;3.37;2.10;;;17.00;99.90;;;;;;5033646;28;20480;-71
2022/08/28 05:23:50;;;;;;;12.30;2.80;;;17.00;99.90;;;;;;5033857;28;20895;-71
2022/08/28 05:26:17;;;;;;;7.17;2.57;;;17.00;99.90;;;;;;5033521;28;20463;-71
2022/08/28 05:28:43;;;;;;;9.00;2.73;;;17.10;99.90;;;;;;5033660;28;20969;-71
2022/08/28 05:31:18;;;;;;;6.07;2.77;;;17.10;99.90;;;;;;5033643;28;20779;-71
2022/08/28 05:33:46;;;;;;;4.37;2.30;;;17.10;99.90;;;;;;5033299;28;20457;-72
2022/08/28 05:36:12;;;;;;;5.10;2.03;;;17.20;99.90;;;;;;5032068;28;20777;-72
2022/08/28 05:38:38;;;;;;;10.40;2.60;;;17.20;99.90;;;;;;5033561;28;20409;-72
2022/08/28 05:41:04;;;;;;;4.37;2.53;;;17.30;99.90;;;;;;5033359;28;20417;-72
2022/08/28 05:43:30;;;;;;;3.43;2.10;;;17.30;99.90;;;;;;5033361;28;20422;-72
2022/08/28 05:46:01;;;;;;;3.80;1.57;;;17.30;99.90;;;;;;5033219;28;20506;-72
2022/08/28 05:48:30;;;;;;;3.30;2.30;;;17.40;99.90;;;;;;5033466;28;20973;-72
2022/08/28 05:51:02;;;;;;;3.93;2.40;;;17.50;99.90;;;;;;5033121;28;20422;-72
2022/08/28 05:53:27;;;;;;;6.10;2.57;;;17.60;99.90;;;;;;5032940;28;20458;-72
2022/08/28 05:55:53;;;;;;;4.33;2.03;;;17.60;99.90;;;;;;5032864;28;20471;-73
2022/08/28 05:58:27;;;;;;;5.30;2.47;;;17.70;99.90;;;;;;5033227;28;20668;-72
2022/08/28 06:00:53;;;;;;;6.77;2.87;;;17.80;99.90;;;;;;5032990;28;20163;-72
2022/08/28 06:03:19;;;;;;;7.07;2.23;;;17.90;99.90;;;;;;5033102;28;20864;-72
2022/08/28 06:05:44;;;;;;;6.77;2.80;;;18.00;99.90;;;;;;5032868;28;20176;-72
2022/08/28 06:08:10;;;;;;;4.17;2.20;;;18.20;99.90;;;;;;5032932;28;20506;-72
2022/08/28 06:10:42;;;;;;;6.20;2.50;;;18.20;99.90;;;;;;5032943;28;20644;-72
2022/08/28 06:13:08;;;;;;;3.57;2.20;;;18.30;99.90;;;;;;5031002;28;20773;-72
2022/08/28 06:15:43;;;;;;;4.37;2.17;;;18.40;99.90;;;;;;5032333;28;20418;-72
2022/08/28 06:18:11;;;;;;;6.93;2.70;;;18.50;99.90;;;;;;5032813;28;20529;-72
2022/08/28 06:20:41;;;;;;;2.87;2.13;;;18.60;99.90;;;;;;5032708;28;20391;-72
2022/08/28 06:23:12;;;;;;;2.80;1.93;;;18.80;99.90;;;;;;5032595;28;20784;-72
2022/08/28 06:25:47;;;;;;;3.43;2.27;;;19.00;99.90;;;;;;5032077;28;20541;-72
2022/08/28 06:28:15;;;;;;;3.77;1.83;;;19.10;99.90;;;;;;5032498;28;20471;-72
2022/08/28 06:30:42;;;;;;;3.93;2.60;;;19.30;99.90;;;;;;5032435;28;20459;-72
2022/08/28 06:33:08;;;;;;;6.70;1.87;;;19.50;99.90;;;;;;5032334;28;20457;-73
2022/08/28 06:35:48;;;;;;;5.33;1.90;;;19.60;99.90;;;;;;5032188;28;20485;-73
2022/08/28 06:38:14;;;;;;;5.67;1.80;;;19.60;99.90;;;;;;5032225;28;20445;-73
2022/08/28 06:40:42;;;;;;;2.60;1.73;;;19.60;99.90;;;;;;5032375;28;20496;-72
2022/08/28 06:43:08;;;;;;;10.37;1.97;;;19.70;99.90;;;;;;5032146;28;20426;-73
2022/08/28 06:45:39;;;;;;;3.13;1.87;;;19.80;99.90;;;;;;5032094;28;20441;-72
2022/08/28 06:48:05;;;;;;;6.10;1.80;;;19.90;99.90;;;;;;5032119;28;20923;-73
2022/08/28 06:50:31;;;;;;;7.87;2.30;;;20.20;99.90;;;;;;5030878;28;20445;-72
2022/08/28 06:52:57;;;;;;;7.77;2.00;;;20.30;99.90;;;;;;5032047;28;20458;-72
2022/08/28 06:55:23;;;;;;;3.43;1.70;;;20.50;99.90;;;;;;5031943;28;20195;-72
2022/08/28 06:57:49;;;;;;;2.90;1.90;;;20.50;99.90;;;;;;5032141;28;20487;-72
2022/08/28 07:00:14;;;;;;;4.40;1.83;;;20.70;99.90;;;;;;5031716;28;20715;-72
2022/08/28 07:02:40;;;;;;;6.57;2.20;;;20.70;99.90;;;;;;5031804;28;20195;-72
2022/08/28 07:05:07;;;;;;;2.20;1.77;;;20.70;99.90;;;;;;5031817;28;20636;-72
2022/08/28 07:07:32;;;;;;;5.13;2.10;;;20.70;99.90;;;;;;5032105;28;20168;-72
2022/08/28 07:09:58;;;;;;;6.00;2.10;;;20.70;99.90;;;;;;5031879;28;20402;-72
2022/08/28 07:12:24;;;;;;;1.90;1.70;;;20.70;99.90;;;;;;5031846;28;20199;-72
2022/08/28 07:14:49;;;;;;;6.80;2.40;;;20.60;99.90;;;;;;5031932;28;20192;-72
2022/08/28 07:17:15;;;;;;;5.23;1.80;;;20.70;99.90;;;;;;5031648;28;20262;-72
2022/08/28 07:19:40;;;;;;;5.10;1.37;;;20.70;99.90;;;;;;5032026;28;20179;-72
2022/08/28 07:22:06;;;;;;;2.93;1.77;;;20.70;99.90;;;;;;5032138;28;20580;-72
2022/08/28 07:24:31;;;;;;;4.10;1.40;;;20.90;99.90;;;;;;5031659;28;20196;-72
2022/08/28 07:26:57;;;;;;;3.30;1.93;;;21.00;99.90;;;;;;5032196;28;20215;-72
2022/08/28 07:29:22;;;;;;;2.17;1.60;;;21.00;99.90;;;;;;5031715;28;20171;-72
2022/08/28 07:31:51;;;;;;;7.10;2.70;;;21.20;99.90;;;;;;5031974;28;20172;-73
2022/08/28 07:34:19;;;;;;;5.13;2.10;;;21.30;99.90;;;;;;5031576;28;20694;-73
2022/08/28 07:36:46;;;;;;;4.00;1.70;;;21.50;99.90;;;;;;5031609;28;20513;-73
2022/08/28 07:39:14;;;;;;;5.20;1.90;;;21.60;99.90;;;;;;5031876;28;20406;-73
2022/08/28 07:41:41;;;;;;;1.50;1.17;;;21.70;99.90;;;;;;5031925;28;20406;-73
2022/08/28 07:46:59;;;;;;;3.67;2.00;;;22.20;99.90;;;;;;5032405;28;20756;-73
2022/08/28 07:49:26;;;;;;;4.50;1.63;;;22.50;99.90;;;;;;5031821;28;20426;-73
2022/08/28 07:51:52;;;;;;;5.03;2.30;;;22.70;99.90;;;;;;5032614;28;20508;-73
2022/08/28 07:54:19;;;;;;;9.23;2.43;;;23.00;99.90;;;;;;5031877;28;20418;-73
2022/08/28 07:56:45;;;;;;;2.53;1.70;;;23.10;99.90;;;;;;5047183;28;20472;-73
2022/08/28 07:59:11;;;;;;;4.60;2.23;;;23.20;99.90;;;;;;5031917;28;20497;-72
2022/08/28 08:01:40;;;;;;;4.43;1.47;;;23.20;99.90;;;;;;5031631;28;20509;-73
2022/08/28 08:04:08;;;;;;;1.90;1.50;;;23.20;99.90;;;;;;5031397;28;20438;-72
2022/08/28 08:06:35;;;;;;;7.03;1.77;;;23.40;99.90;;;;;;5031700;28;20406;-72
2022/08/28 08:09:03;;;;;;;2.67;1.77;;;23.60;99.90;;;;;;5031774;28;20453;-72
2022/08/28 08:11:29;;;;;;;3.20;2.70;;;23.60;99.90;;;;;;5032455;28;20424;-73
2022/08/28 08:13:56;;;;;;;2.97;1.80;;;23.70;99.90;;;;;;5035182;28;20458;-73
2022/08/28 08:16:23;;;;;;;2.67;1.60;;;23.80;99.90;;;;;;5032914;28;20791;-73
2022/08/28 08:18:52;;;;;;;4.20;1.40;;;24.10;99.90;;;;;;5034200;28;20810;-72
2022/08/28 08:21:21;;;;;;;4.70;1.80;;;24.30;99.90;;;;;;5035118;28;20407;-73
2022/08/28 08:23:47;;;;;;;2.20;1.60;;;24.70;99.90;;;;;;5033682;28;20430;-73
2022/08/28 08:26:20;;;;;;;3.27;1.50;;;25.20;99.90;;;;;;5034624;28;20459;-73
2022/08/28 08:28:46;;;;;;;3.43;2.07;;;25.60;99.90;;;;;;5034693;28;20495;-73
2022/08/28 08:31:23;;;;;;;3.37;1.47;;;26.20;99.40;;;;;;5034816;28;20414;-73
2022/08/28 08:33:51;;;;;;;3.20;2.03;;;26.70;95.00;;;;;;5034640;28;20491;-73
2022/08/28 08:36:19;;;;;;;3.80;2.10;;;27.40;93.10;;;;;;5034479;28;20770;-73
2022/08/28 08:38:45;;;;;;;4.67;1.70;;;28.40;86.50;;;;;;5036201;28;20403;-76
2022/08/28 08:41:22;;;;;;;3.53;1.43;;;29.60;75.60;;;;;;5034636;28;20430;-75
2022/08/28 08:44:02;;;;;;;8.00;1.90;;;30.60;71.40;;;;;;5034121;28;20452;-74
2022/08/28 08:46:44;;;;;;;2.47;1.80;;;32.00;61.40;;;;;;5034251;28;20414;-74
2022/08/28 08:49:17;;;;;;;2.90;1.50;;;33.30;55.60;;;;;;5034527;28;20406;-74
2022/08/28 08:51:58;;;;;;;7.37;1.93;;;34.30;55.10;;;;;;5033890;28;20434;-74
2022/08/28 08:54:23;;;;;;;2.70;1.87;;;35.20;51.40;;;;;;5032327;28;20441;-74
2022/08/28 08:56:53;;;;;;;4.03;1.60;;;35.30;48.60;;;;;;5034254;28;20394;-74
2022/08/28 08:59:24;;;;;;;2.10;1.60;;;34.80;47.10;;;;;;5034248;28;20164;-74
2022/08/28 09:02:05;;;;;;;3.53;2.20;;;34.50;47.60;;;;;;5032930;28;20770;-74
2022/08/28 09:04:45;;;;;;;4.90;2.20;;;34.70;47.00;;;;;;5033390;28;20477;-74
2022/08/28 09:07:43;;;;;;;3.77;2.33;;;34.40;47.00;;;;;;5034022;28;20441;-74
2022/08/28 09:10:11;;;;;;;1.93;1.63;;;34.30;46.50;;;;;;5033216;28;20425;-74
2022/08/28 09:13:04;;;;;;;4.73;1.80;;;33.60;46.30;;;;;;5033386;28;20462;-75
2022/08/28 09:15:38;;;;;;;3.37;2.13;;;33.40;47.00;;;;;;5032483;28;20418;-73
2022/08/28 09:18:12;;;;;;;4.03;1.90;;;33.40;47.80;;;;;;5033963;28;20890;-74
2022/08/28 09:20:38;;;;;;;3.50;1.67;;;33.90;47.40;;;;;;5033586;28;20489;-74
2022/08/28 09:23:04;;;;;;;2.70;2.10;;;35.30;46.20;;;;;;5033296;28;20430;-74
2022/08/28 09:25:49;;;;;;;5.50;1.87;;;36.80;44.60;;;;;;5032968;28;20419;-74
2022/08/28 09:28:33;;;;;;;9.17;4.97;;;38.00;42.90;;;;;;5033389;28;20265;-74
2022/08/28 09:31:30;;;;;;;4.07;1.80;;;39.00;39.70;;;;;;5033619;28;20406;-74
2022/08/28 09:34:18;;;;;;;2.40;1.57;;;40.20;39.00;;;;;;5033398;28;20504;-74
2022/08/28 09:36:44;;;;;;;4.00;2.20;;;40.90;35.60;;;;;;5033619;28;20402;-74
2022/08/28 09:39:30;;;;;;;3.97;1.93;;;41.40;33.90;;;;;;5032979;28;20411;-74
2022/08/28 09:45:15;;;;;;;2.13;1.93;;;42.10;32.20;;;;;;5033159;28;20501;-74
2022/08/28 09:47:50;;;;;;;4.60;2.33;;;42.80;31.90;;;;;;5033217;28;20422;-74
2022/08/28 09:50:20;;;;;;;2.10;1.90;;;43.20;32.00;;;;;;5033115;28;20418;-74
2022/08/28 09:52:47;;;;;;;2.33;2.13;;;43.50;31.30;;;;;;5032820;28;20432;-74
2022/08/28 09:55:35;;;;;;;2.33;2.13;;;43.70;30.30;;;;;;5032863;28;20454;-74
2022/08/28 09:58:02;;;;;;;3.40;2.53;;;43.80;29.20;;;;;;5033079;28;20430;-74
2022/08/28 10:00:32;;;;;;;2.73;1.97;;;44.10;29.90;;;;;;5033054;28;20380;-74
2022/08/28 10:03:20;;;;;;;3.80;2.43;;;44.40;29.60;;;;;;5031660;28;20780;-74
2022/08/28 10:06:03;;;;;;;2.27;1.90;;;44.90;29.10;;;;;;5032452;28;20385;-74
2022/08/28 10:08:53;;;;;;;2.37;1.90;;;44.80;29.00;;;;;;5032912;28;20396;-74
2022/08/28 10:11:57;;;;;;;3.17;2.07;;;44.90;27.80;;;;;;5032921;28;20402;-74
2022/08/28 10:14:52;;;;;;;3.33;2.63;;;45.00;28.80;;;;;;5032455;28;20448;-74
2022/08/28 10:17:30;;;;;;;2.00;1.80;;;45.20;27.90;;;;;;5032622;28;20902;-74
2022/08/28 10:20:16;;;;;;;2.23;2.03;;;45.00;27.60;;;;;;5032527;28;20396;-75
2022/08/28 10:23:00;;;;;;;3.60;2.13;;;45.10;27.40;;;;;;5032613;28;20388;-74
2022/08/28 10:25:37;;;;;;;3.33;1.93;;;44.80;27.20;;;;;;5031092;28;20416;-74
2022/08/28 10:28:15;;;;;;;2.63;2.43;;;45.10;27.80;;;;;;5032627;28;20368;-74
2022/08/28 10:30:57;;;;;;;2.50;2.30;;;45.60;27.90;;;;;;5032599;28;20380;-74
2022/08/28 10:34:07;;;;;;;2.27;2.03;;;46.10;27.30;;;;;;5032063;28;20853;-74
2022/08/28 10:36:34;;;;;;;4.87;2.73;;;46.40;26.70;;;;;;5031372;28;20400;-74
2022/08/28 10:39:14;;;;;;;3.43;2.17;;;46.70;26.70;;;;;;5032426;28;20414;-73
2022/08/28 10:41:51;;;;;;;3.97;2.50;;;47.00;26.50;;;;;;5032394;28;20695;-73
2022/08/28 10:44:25;;;;;;;3.07;2.13;;;47.20;26.20;;;;;;5031969;28;20415;-73
2022/08/28 10:46:56;;;;;;;2.53;2.33;;;47.50;26.40;;;;;;5032081;28;20429;-73
2022/08/28 10:49:36;;;;;;;3.73;2.60;;;47.70;25.80;;;;;;5032215;28;20385;-73
2022/08/28 10:52:07;;;;;;;2.77;2.30;;;48.00;25.90;;;;;;5032014;28;20503;-74
2022/08/28 10:54:44;;;;;;;2.20;1.93;;;48.50;24.70;;;;;;5030615;28;20455;-73
2022/08/28 10:57:34;;;;;;;2.40;2.20;;;48.50;24.60;;;;;;5032085;28;20404;-73
2022/08/28 11:00:15;;;;;;;2.57;2.37;;;48.70;24.10;;;;;;5030880;28;20833;-73
2022/08/28 11:02:45;;;;;;;3.90;2.33;;;48.50;24.50;;;;;;5012405;28;20462;-73
2022/08/28 11:05:11;;;;;;;4.83;2.80;;;48.80;24.80;;;;;;5011975;28;20804;-73
2022/08/28 11:07:43;;;;;;;3.07;2.40;;;48.40;24.10;;;;;;5012238;28;20440;-73
2022/08/28 11:10:20;;;;;;;2.40;2.03;;;48.00;24.60;;;;;;5012561;28;20373;-73
2022/08/28 11:12:50;;;;;;;4.73;2.03;;;47.90;24.90;;;;;;5011028;28;20520;-73
2022/08/28 11:15:28;;;;;;;2.23;2.03;;;47.90;24.90;;;;;;5022348;28;20412;-73
2022/08/28 11:18:17;;;;;;;3.90;2.47;;;47.40;25.30;;;;;;5030634;28;20943;-73
2022/08/28 11:21:25;;;;;;;2.60;2.40;;;46.90;25.20;;;;;;5032077;28;20472;-73
2022/08/28 11:23:53;;;;;;;2.60;2.23;;;46.10;24.90;;;;;;5031296;28;20416;-73
2022/08/28 11:26:49;;;;;;;3.73;2.50;;;45.50;25.30;;;;;;5031710;28;20856;-73
2022/08/28 11:29:54;;;;;;;3.50;2.13;;;44.90;26.10;;;;;;5019357;28;20455;-73
2022/08/28 11:32:49;;;;;;;3.23;2.27;;;44.70;26.30;;;;;;5012030;28;20479;-73
2022/08/28 11:36:00;;;;;;;2.50;2.30;;;44.00;26.00;;;;;;5012018;28;20411;-73
2022/08/28 11:38:40;;;;;;;2.70;2.20;;;43.50;27.00;;;;;;5010750;28;20426;-73
2022/08/28 11:41:29;;;;;;;2.40;2.00;;;43.50;27.00;;;;;;5012099;28;20376;-73
2022/08/28 11:44:12;;;;;;;3.23;2.10;;;43.20;26.80;;;;;;5030875;28;20405;-73
2022/08/28 11:46:50;;;;;;;2.80;2.00;;;43.20;27.10;;;;;;5034148;28;20434;-73
2022/08/28 11:49:33;;;;;;;3.33;2.30;;;43.50;26.80;;;;;;5035177;28;20478;-73
2022/08/28 11:52:04;;;;;;;2.50;2.20;;;43.60;26.40;;;;;;5034570;28;20419;-73
2022/08/28 11:54:45;;;;;;;4.70;2.10;;;43.20;26.30;;;;;;5034095;28;20821;-73
2022/08/28 11:57:51;;;;;;;3.90;2.40;;;43.10;27.00;;;;;;5034935;28;20504;-74
2022/08/28 12:00:45;;;;;;;2.13;1.93;;;42.90;27.10;;;;;;5035499;28;20394;-73
2022/08/28 12:03:25;;;;;;;3.53;1.80;;;42.90;27.00;;;;;;5035299;28;20426;-73
2022/08/28 12:05:56;;;;;;;7.77;2.37;;;42.90;27.40;;;;;;5034930;28;20406;-73
2022/08/28 12:08:57;;;;;;;4.27;1.73;;;43.60;26.20;;;;;;5034825;28;20795;-73
2022/08/28 12:11:38;;;;;;;2.80;2.17;;;43.80;25.80;;;;;;5034463;28;20418;-73
2022/08/28 12:14:07;;;;;;;2.00;1.80;;;43.60;26.10;;;;;;5034356;28;20462;-74
2022/08/28 12:17:23;;;;;;;2.70;2.03;;;43.50;25.90;;;;;;5034495;28;20377;-74
2022/08/28 12:19:55;;;;;;;5.57;1.77;;;43.50;26.90;;;;;;5034033;28;20410;-74
2022/08/28 12:22:25;;;;;;;2.80;1.63;;;43.10;26.70;;;;;;5034542;28;20441;-73
2022/08/28 12:24:57;;;;;;;2.53;1.67;;;42.40;26.10;;;;;;5034123;28;20396;-73
2022/08/28 12:27:23;;;;;;;2.17;1.80;;;42.30;26.20;;;;;;5034376;28;20387;-73
2022/08/28 12:29:53;;;;;;;4.43;2.30;;;42.00;26.40;;;;;;5034401;28;20429;-73
2022/08/28 12:32:21;;;;;;;3.37;1.90;;;41.50;27.50;;;;;;5034313;28;20469;-73
2022/08/28 12:34:58;;;;;;;2.37;1.80;;;41.50;27.30;;;;;;5034015;28;20479;-74
2022/08/28 12:37:57;;;;;;;2.07;1.87;;;41.30;27.60;;;;;;5034322;28;20402;-73
2022/08/28 12:40:40;;;;;;;3.83;2.07;;;41.00;27.40;;;;;;5034233;28;20414;-75
2022/08/28 12:43:09;;;;;;;3.03;1.73;;;40.60;28.00;;;;;;5034246;28;20400;-74
2022/08/28 12:45:39;;;;;;;1.70;1.60;;;40.20;27.50;;;;;;5033992;28;20783;-74
2022/08/28 12:48:16;;;;;;;3.63;1.97;;;40.50;27.20;;;;;;5034186;28;20407;-74
2022/08/28 12:50:41;;;;;;;2.13;1.70;;;40.50;27.80;;;;;;5033987;28;20474;-74
2022/08/28 12:53:15;;;;;;;2.23;1.93;;;40.60;28.00;;;;;;5034011;28;20994;-74
2022/08/28 12:55:41;;;;;;;3.93;1.80;;;40.80;27.50;;;;;;5033689;28;20164;-74
2022/08/28 12:58:28;;;;;;;2.10;1.90;;;40.50;27.30;;;;;;5033318;28;20525;-74
2022/08/28 13:00:58;;;;;;;3.33;1.63;;;40.50;27.50;;;;;;5026608;28;20928;-74
2022/08/28 13:03:24;;;;;;;1.97;1.70;;;41.00;28.20;;;;;;5026657;28;20482;-74
2022/08/28 13:06:22;;;;;;;2.93;1.63;;;40.90;27.50;;;;;;5033381;28;20412;-74
2022/08/28 13:08:48;;;;;;;3.00;2.33;;;41.00;27.50;;;;;;5033318;28;20422;-75
2022/08/28 13:11:18;;;;;;;1.60;1.20;;;41.30;27.20;;;;;;5032915;28;20422;-75
2022/08/28 13:13:47;;;;;;;3.00;1.77;;;41.80;27.10;;;;;;5033631;28;20990;-75
2022/08/28 13:16:38;;;;;;;3.37;2.20;;;42.30;27.10;;;;;;5032760;28;20426;-75